Time,TemperatureF,DewpointF,PressureIn,WindDirection,WindDirectionDegrees,WindSpeedMPH,WindSpeedGustMPH,Humidity,HourlyPrecipIn,Conditions,Clouds,dailyrainin,SoftwareType,DateUTC
2013-01-18 00:00:00,34.1,30.9,30.24,NNW,327,0.0,0.0,88,0.00,,,0.00,Wunderground PWS Mod,2013-01-18 08:00:00,
2013-01-18 00:10:00,34.3,31.1,30.24,NNW,327,0.0,0.0,88,0.00,,,0.00,Wunderground PWS Mod,2013-01-18 08:10:00,
2013-01-18 00:20:00,34.4,30.9,30.23,NNW,327,0.0,0.0,87,0.00,,,0.00,Wunderground PWS Mod,2013-01-18 08:20:00,
2013-01-18 00:30:00,34.6,30.8,30.23,NNW,327,0.0,2.0,86,0.00,,,0.00,Wunderground PWS Mod,2013-01-18 08:30:00,
2013-01-18 00:40:00,34.6,30.8,30.23,NNW,327,0.0,0.0,86,0.00,,,0.00,Wunderground PWS Mod,2013-01-18 08:40:00,
2013-01-18 00:49:00,34.6,30.6,30.23,NNW,327,0.0,0.0,85,0.00,,,0.00,Wunderground PWS Mod,2013-01-18 08:49:00,
2013-01-18 01:00:00,34.6,30.6,30.23,NNW,327,0.0,0.0,85,0.00,,,0.00,Wunderground PWS Mod,2013-01-18 09:00:00,
2013-01-18 01:10:00,34.7,30.4,30.23,NNW,327,0.0,0.0,84,0.00,,,0.00,Wunderground PWS Mod,2013-01-18 09:10:00,
2013-01-18 01:20:00,34.7,30.4,30.23,NNW,327,0.0,0.0,84,0.00,,,0.00,Wunderground PWS Mod,2013-01-18 09:20:00,
2013-01-18 01:30:00,34.7,30.4,30.23,NNW,327,0.0,0.0,84,0.00,,,0.00,Wunderground PWS Mod,2013-01-18 09:30:00,
2013-01-18 01:40:00,34.6,30.3,30.23,NNW,327,0.0,0.0,84,0.00,,,0.00,Wunderground PWS Mod,2013-01-18 09:40:00,
2013-01-18 01:50:00,34.6,30.3,30.23,NNW,327,0.0,0.0,84,0.00,,,0.00,Wunderground PWS Mod,2013-01-18 09:50:00,
2013-01-18 02:00:00,34.6,30.3,30.23,NNW,327,0.0,0.0,84,0.00,,,0.00,Wunderground PWS Mod,2013-01-18 10:00:00,
2013-01-18 02:10:00,34.4,30.1,30.23,NNW,327,0.0,0.0,84,0.00,,,0.00,Wunderground PWS Mod,2013-01-18 10:10:00,
2013-01-18 02:20:00,34.4,30.1,30.23,NNW,327,0.0,0.0,84,0.00,,,0.00,Wunderground PWS Mod,2013-01-18 10:20:00,
2013-01-18 02:30:00,34.4,30.1,30.23,NNW,327,0.0,0.0,84,0.00,,,0.00,Wunderground PWS Mod,2013-01-18 10:30:00,
2013-01-18 02:40:00,34.4,30.4,30.23,NNW,327,0.0,0.0,85,0.00,,,0.00,Wunderground PWS Mod,2013-01-18 10:40:00,
2013-01-18 02:50:00,34.4,30.4,30.23,NNW,327,0.0,0.0,85,0.00,,,0.00,Wunderground PWS Mod,2013-01-18 10:50:00,
2013-01-18 03:00:00,34.6,30.8,30.23,NNW,327,0.0,0.0,86,0.00,,,0.00,Wunderground PWS Mod,2013-01-18 11:00:00,
2013-01-18 03:10:00,34.7,30.9,30.23,NNW,327,0.0,0.0,86,0.00,,,0.00,Wunderground PWS Mod,2013-01-18 11:10:00,
2013-01-18 03:20:00,34.7,30.9,30.23,NNW,327,0.0,0.0,86,0.00,,,0.00,Wunderground PWS Mod,2013-01-18 11:20:00,
2013-01-18 03:29:00,34.7,30.9,30.23,NNW,327,0.0,0.0,86,0.00,,,0.00,Wunderground PWS Mod,2013-01-18 11:29:00,
2013-01-18 03:40:00,34.6,30.8,30.22,NNW,327,1.0,3.0,86,0.00,,,0.00,Wunderground PWS Mod,2013-01-18 11:40:00,
2013-01-18 03:50:00,34.3,30.5,30.22,NNW,327,1.0,3.0,86,0.00,,,0.00,Wunderground PWS Mod,2013-01-18 11:50:00,
2013-01-18 04:00:00,34.1,30.4,30.22,NNW,327,0.0,0.0,86,0.00,,,0.00,Wunderground PWS Mod,2013-01-18 12:00:00,
2013-01-18 04:10:00,33.8,30.1,30.22,NNW,327,0.0,1.0,86,0.00,,,0.00,Wunderground PWS Mod,2013-01-18 12:10:00,
2013-01-18 04:20:00,33.7,30.0,30.22,NNW,327,0.0,1.0,86,0.00,,,0.00,Wunderground PWS Mod,2013-01-18 12:20:00,
2013-01-18 04:30:00,33.4,29.9,30.22,NNW,327,0.0,2.0,87,0.00,,,0.00,Wunderground PWS Mod,2013-01-18 12:30:00,
2013-01-18 04:40:00,33.4,29.9,30.22,NNW,327,0.0,1.0,87,0.00,,,0.00,Wunderground PWS Mod,2013-01-18 12:40:00,
2013-01-18 04:50:00,33.2,29.8,30.21,NNW,327,0.0,2.0,87,0.00,,,0.00,Wunderground PWS Mod,2013-01-18 12:50:00,
2013-01-18 05:00:00,33.2,30.0,30.21,NNW,327,0.0,0.0,88,0.00,,,0.00,Wunderground PWS Mod,2013-01-18 13:00:00,
2013-01-18 05:10:00,33.1,29.9,30.21,NNW,327,0.0,0.0,88,0.00,,,0.00,Wunderground PWS Mod,2013-01-18 13:10:00,
2013-01-18 05:20:00,33.1,29.9,30.21,NNW,327,0.0,2.0,88,0.00,,,0.00,Wunderground PWS Mod,2013-01-18 13:20:00,
2013-01-18 05:30:00,32.9,29.7,30.21,NNW,327,0.0,1.0,88,0.00,,,0.00,Wunderground PWS Mod,2013-01-18 13:30:00,
2013-01-18 05:39:00,32.9,29.7,30.21,NNW,327,0.0,0.0,88,0.00,,,0.00,Wunderground PWS Mod,2013-01-18 13:39:00,
2013-01-18 05:50:00,32.8,29.6,30.21,NNW,327,0.0,1.0,88,0.00,,,0.00,Wunderground PWS Mod,2013-01-18 13:50:00,
2013-01-18 06:00:00,32.8,29.4,30.21,NNW,327,0.0,2.0,87,0.00,,,0.00,Wunderground PWS Mod,2013-01-18 14:00:00,
2013-01-18 06:10:00,32.8,29.4,30.21,NNW,327,0.0,0.0,87,0.00,,,0.00,Wunderground PWS Mod,2013-01-18 14:10:00,
2013-01-18 06:20:00,32.7,29.3,30.21,NNW,327,0.0,0.0,87,0.00,,,0.00,Wunderground PWS Mod,2013-01-18 14:20:00,
2013-01-18 06:30:00,32.5,29.1,30.21,NNW,327,0.0,0.0,87,0.00,,,0.00,Wunderground PWS Mod,2013-01-18 14:30:00,
2013-01-18 06:40:00,32.4,29.2,30.22,NNW,327,1.0,2.0,88,0.00,,,0.00,Wunderground PWS Mod,2013-01-18 14:40:00,
2013-01-18 06:50:00,32.2,29.0,30.22,NNW,327,1.0,2.0,88,0.00,,,0.00,Wunderground PWS Mod,2013-01-18 14:50:00,
2013-01-18 07:00:00,32.1,28.9,30.22,NNW,327,0.0,2.0,88,0.00,,,0.00,Wunderground PWS Mod,2013-01-18 15:00:00,
2013-01-18 07:10:00,31.9,29.0,30.22,NNW,327,0.0,0.0,89,0.00,,,0.00,Wunderground PWS Mod,2013-01-18 15:10:00,
2013-01-18 07:20:00,31.9,29.0,30.21,NNW,327,0.0,0.0,89,0.00,,,0.00,Wunderground PWS Mod,2013-01-18 15:20:00,
2013-01-18 07:30:00,31.9,29.0,30.21,NNW,327,0.0,0.0,89,0.00,,,0.00,Wunderground PWS Mod,2013-01-18 15:30:00,
2013-01-18 07:39:00,32.1,29.5,30.21,NNW,327,0.0,0.0,90,0.00,,,0.00,Wunderground PWS Mod,2013-01-18 15:39:00,
2013-01-18 07:49:00,32.1,29.5,30.21,NNW,327,0.0,0.0,90,0.00,,,0.00,Wunderground PWS Mod,2013-01-18 15:49:00,
2013-01-18 07:59:00,32.1,29.5,30.21,NNW,327,0.0,0.0,90,0.00,,,0.00,Wunderground PWS Mod,2013-01-18 15:59:00,
2013-01-18 08:10:00,31.9,29.3,30.22,NNW,327,0.0,0.0,90,0.00,,,0.00,Wunderground PWS Mod,2013-01-18 16:10:00,
2013-01-18 08:20:00,31.9,29.3,30.23,NNW,327,0.0,0.0,90,0.00,,,0.00,Wunderground PWS Mod,2013-01-18 16:20:00,
2013-01-18 08:30:00,31.9,29.3,30.23,NNW,327,0.0,0.0,90,0.00,,,0.00,Wunderground PWS Mod,2013-01-18 16:30:00,
2013-01-18 08:40:00,31.8,29.2,30.23,NNW,327,0.0,0.0,90,0.00,,,0.00,Wunderground PWS Mod,2013-01-18 16:40:00,
2013-01-18 08:50:00,31.8,29.2,30.24,NNW,327,0.0,0.0,90,0.00,,,0.00,Wunderground PWS Mod,2013-01-18 16:50:00,
2013-01-18 09:00:00,31.8,29.5,30.24,NNW,327,0.0,0.0,91,0.00,,,0.00,Wunderground PWS Mod,2013-01-18 17:00:00,
2013-01-18 09:10:00,31.9,29.6,30.24,NNW,327,0.0,0.0,91,0.00,,,0.00,Wunderground PWS Mod,2013-01-18 17:10:00,
2013-01-18 09:20:00,32.2,29.9,30.25,NNW,327,0.0,0.0,91,0.00,,,0.00,Wunderground PWS Mod,2013-01-18 17:20:00,
2013-01-18 09:30:00,32.7,30.4,30.25,NNW,327,0.0,2.0,91,0.00,,,0.00,Wunderground PWS Mod,2013-01-18 17:30:00,
2013-01-18 09:40:00,33.1,30.8,30.25,NNW,327,0.0,2.0,91,0.00,,,0.00,Wunderground PWS Mod,2013-01-18 17:40:00,
2013-01-18 09:50:00,32.8,30.5,30.26,NNW,327,0.0,2.0,91,0.00,,,0.00,Wunderground PWS Mod,2013-01-18 17:50:00,
2013-01-18 10:00:00,31.9,29.0,30.26,NNW,327,1.0,2.0,89,0.00,,,0.00,Wunderground PWS Mod,2013-01-18 18:00:00,
2013-01-18 10:10:00,32.7,30.1,30.26,NNW,346,1.0,3.0,90,0.00,,,0.00,Wunderground PWS Mod,2013-01-18 18:10:00,
2013-01-18 10:20:00,32.7,29.8,30.26,NNW,346,1.0,2.0,89,0.00,,,0.00,Wunderground PWS Mod,2013-01-18 18:20:00,
2013-01-18 10:30:00,34.3,31.4,30.26,NNW,346,1.0,2.0,89,0.00,,,0.00,Wunderground PWS Mod,2013-01-18 18:30:00,
2013-01-18 10:40:00,36.2,32.4,30.25,NNW,346,0.0,0.0,86,0.00,,,0.00,Wunderground PWS Mod,2013-01-18 18:40:00,
2013-01-18 10:50:00,36.9,32.2,30.25,NNW,346,0.0,1.0,83,0.00,,,0.00,Wunderground PWS Mod,2013-01-18 18:50:00,
2013-01-18 11:00:00,36.8,32.1,30.25,West,265,0.0,1.0,83,0.00,,,0.00,Wunderground PWS Mod,2013-01-18 19:00:00,
2013-01-18 11:10:00,35.5,31.7,30.25,West,265,1.0,2.0,86,0.00,,,0.00,Wunderground PWS Mod,2013-01-18 19:10:00,
2013-01-18 11:20:00,36.6,32.5,30.25,West,265,0.0,1.0,85,0.00,,,0.00,Wunderground PWS Mod,2013-01-18 19:20:00,
2013-01-18 11:30:00,37.6,32.6,30.25,West,265,0.0,1.0,82,0.00,,,0.00,Wunderground PWS Mod,2013-01-18 19:30:00,
2013-01-18 11:40:00,37.8,32.8,30.24,West,264,1.0,3.0,82,0.00,,,0.00,Wunderground PWS Mod,2013-01-18 19:40:00,
2013-01-18 11:50:00,38.2,33.2,30.24,WSW,252,0.0,3.0,82,0.00,,,0.00,Wunderground PWS Mod,2013-01-18 19:50:00,
2013-01-18 12:00:00,37.3,32.6,30.24,SW,226,1.0,2.0,83,0.00,,,0.00,Wunderground PWS Mod,2013-01-18 20:00:00,
2013-01-18 12:09:00,37.3,32.6,30.24,NW,323,1.0,2.0,83,0.00,,,0.00,Wunderground PWS Mod,2013-01-18 20:09:00,
2013-01-18 12:20:00,37.5,32.8,30.24,SW,234,0.0,3.0,83,0.00,,,0.00,Wunderground PWS Mod,2013-01-18 20:20:00,
2013-01-18 12:30:00,37.6,33.2,30.24,NW,325,1.0,2.0,84,0.00,,,0.00,Wunderground PWS Mod,2013-01-18 20:30:00,
2013-01-18 12:40:00,36.9,32.8,30.24,NW,325,1.0,2.0,85,0.00,,,0.00,Wunderground PWS Mod,2013-01-18 20:40:00,
2013-01-18 12:50:00,36.5,32.7,30.25,NNW,340,2.0,4.0,86,0.00,,,0.00,Wunderground PWS Mod,2013-01-18 20:50:00,
2013-01-18 13:00:00,34.9,31.7,30.25,NW,326,2.0,4.0,88,0.00,,,0.00,Wunderground PWS Mod,2013-01-18 21:00:00,
2013-01-18 13:10:00,34.7,32.1,30.25,NNW,331,1.0,4.0,90,0.00,,,0.00,Wunderground PWS Mod,2013-01-18 21:10:00,
2013-01-18 13:20:00,34.0,31.4,30.24,NNW,332,2.0,4.0,90,0.00,,,0.00,Wunderground PWS Mod,2013-01-18 21:20:00,
2013-01-18 13:30:00,33.8,31.5,30.24,NNW,337,1.0,3.0,91,0.00,,,0.00,Wunderground PWS Mod,2013-01-18 21:30:00,
2013-01-18 13:40:00,33.8,31.5,30.24,NW,323,2.0,4.0,91,0.00,,,0.00,Wunderground PWS Mod,2013-01-18 21:40:00,
2013-01-18 13:49:00,34.0,31.9,30.24,NNW,327,2.0,3.0,92,0.00,,,0.00,Wunderground PWS Mod,2013-01-18 21:49:00,
2013-01-18 14:00:00,33.8,31.7,30.24,North,349,1.0,3.0,92,0.00,,,0.00,Wunderground PWS Mod,2013-01-18 22:00:00,
2013-01-18 14:10:00,33.8,31.7,30.24,NNW,336,1.0,3.0,92,0.00,,,0.00,Wunderground PWS Mod,2013-01-18 22:10:00,
2013-01-18 14:20:00,33.4,31.3,30.25,NNW,340,2.0,4.0,92,0.00,,,0.00,Wunderground PWS Mod,2013-01-18 22:20:00,
2013-01-18 14:30:00,33.2,31.1,30.25,NNW,340,2.0,6.0,92,0.00,,,0.00,Wunderground PWS Mod,2013-01-18 22:30:00,
2013-01-18 14:40:00,34.1,32.3,30.24,NNW,340,1.0,3.0,93,0.00,,,0.00,Wunderground PWS Mod,2013-01-18 22:40:00,
2013-01-18 14:50:00,35.5,33.4,30.24,NNW,340,1.0,3.0,92,0.00,,,0.00,Wunderground PWS Mod,2013-01-18 22:50:00,
2013-01-18 15:00:00,34.9,32.3,30.24,NNW,340,0.0,2.0,90,0.00,,,0.00,Wunderground PWS Mod,2013-01-18 23:00:00,
2013-01-18 15:10:00,34.1,31.5,30.24,NNW,340,1.0,2.0,90,0.00,,,0.00,Wunderground PWS Mod,2013-01-18 23:10:00,
2013-01-18 15:20:00,33.8,31.2,30.25,NNW,330,1.0,4.0,90,0.00,,,0.00,Wunderground PWS Mod,2013-01-18 23:20:00,
2013-01-18 15:30:00,33.8,31.5,30.25,NNW,331,0.0,3.0,91,0.00,,,0.00,Wunderground PWS Mod,2013-01-18 23:30:00,
2013-01-18 15:40:00,33.1,30.8,30.25,NNW,331,0.0,2.0,91,0.00,,,0.00,Wunderground PWS Mod,2013-01-18 23:40:00,
2013-01-18 15:49:00,32.9,30.6,30.25,NNW,338,0.0,2.0,91,0.00,,,0.00,Wunderground PWS Mod,2013-01-18 23:49:00,
2013-01-18 16:00:00,33.2,31.1,30.25,WSW,251,0.0,0.0,92,0.00,,,0.00,Wunderground PWS Mod,2013-01-19 00:00:00,
2013-01-18 16:10:00,31.9,29.8,30.25,WSW,252,1.0,2.0,92,0.00,,,0.00,Wunderground PWS Mod,2013-01-19 00:10:00,
2013-01-18 16:19:00,31.8,29.7,30.25,WSW,248,0.0,2.0,92,0.00,,,0.00,Wunderground PWS Mod,2013-01-19 00:19:00,
2013-01-18 16:30:00,31.3,29.5,30.26,NW,313,0.0,4.0,93,0.00,,,0.00,Wunderground PWS Mod,2013-01-19 00:30:00,
2013-01-18 16:40:00,31.3,29.5,30.25,North,5,1.0,4.0,93,0.00,,,0.00,Wunderground PWS Mod,2013-01-19 00:40:00,
2013-01-18 16:50:00,31.5,29.7,30.26,NNE,17,0.0,4.0,93,0.00,,,0.00,Wunderground PWS Mod,2013-01-19 00:50:00,
2013-01-18 17:00:00,31.5,29.7,30.26,WNW,297,0.0,1.0,93,0.00,,,0.00,Wunderground PWS Mod,2013-01-19 01:00:00,
2013-01-18 17:10:00,31.3,29.8,30.26,WNW,297,0.0,1.0,94,0.00,,,0.00,Wunderground PWS Mod,2013-01-19 01:10:00,
2013-01-18 17:20:00,30.9,29.4,30.26,WNW,297,0.0,0.0,94,0.00,,,0.00,Wunderground PWS Mod,2013-01-19 01:20:00,
2013-01-18 17:30:00,30.6,29.1,30.26,WNW,297,0.0,1.0,94,0.00,,,0.00,Wunderground PWS Mod,2013-01-19 01:30:00,
2013-01-18 17:40:00,30.7,29.2,30.26,WNW,297,0.0,1.0,94,0.00,,,0.00,Wunderground PWS Mod,2013-01-19 01:40:00,
2013-01-18 17:50:00,30.9,29.4,30.26,WNW,297,0.0,1.0,94,0.00,,,0.00,Wunderground PWS Mod,2013-01-19 01:50:00,
2013-01-18 18:00:00,31.0,29.5,30.26,NW,306,0.0,3.0,94,0.00,,,0.00,Wunderground PWS Mod,2013-01-19 02:00:00,
2013-01-18 18:10:00,31.2,29.7,30.26,NW,306,0.0,0.0,94,0.00,,,0.00,Wunderground PWS Mod,2013-01-19 02:10:00,
2013-01-18 18:20:00,31.5,30.2,30.26,NW,306,0.0,0.0,95,0.00,,,0.00,Wunderground PWS Mod,2013-01-19 02:20:00,
2013-01-18 18:30:00,31.3,29.8,30.26,NW,308,0.0,2.0,94,0.00,,,0.00,Wunderground PWS Mod,2013-01-19 02:30:00,
2013-01-18 18:40:00,31.3,30.0,30.26,NW,317,1.0,3.0,95,0.00,,,0.00,Wunderground PWS Mod,2013-01-19 02:40:00,
2013-01-18 18:50:00,31.3,29.8,30.26,NW,317,1.0,2.0,94,0.00,,,0.00,Wunderground PWS Mod,2013-01-19 02:50:00,
2013-01-18 19:20:00,30.9,29.6,30.26,N/A,-737280,0.0,0.0,95,0.00,,,0.00,Wunderground PWS Mod,2013-01-19 03:20:00,
2013-01-18 19:30:00,30.7,29.4,30.27,WNW,302,0.0,0.0,95,0.00,,,0.00,Wunderground PWS Mod,2013-01-19 03:30:00,
2013-01-18 19:40:00,30.7,29.4,30.26,WNW,302,0.0,0.0,95,0.00,,,0.00,Wunderground PWS Mod,2013-01-19 03:40:00,
2013-01-18 19:50:00,30.7,29.4,30.26,WNW,302,0.0,0.0,95,0.00,,,0.00,Wunderground PWS Mod,2013-01-19 03:50:00,
2013-01-18 20:00:00,30.4,28.9,30.26,WNW,302,0.0,2.0,94,0.00,,,0.00,Wunderground PWS Mod,2013-01-19 04:00:00,
2013-01-18 20:10:00,30.3,29.0,30.27,WNW,302,0.0,0.0,95,0.00,,,0.00,Wunderground PWS Mod,2013-01-19 04:10:00,
2013-01-18 20:20:00,30.1,28.6,30.27,NW,305,0.0,1.0,94,0.00,,,0.00,Wunderground PWS Mod,2013-01-19 04:20:00,
2013-01-18 20:30:00,29.8,28.3,30.27,NW,313,0.0,0.0,94,0.00,,,0.00,Wunderground PWS Mod,2013-01-19 04:30:00,
2013-01-18 20:39:00,29.7,28.4,30.28,NW,313,0.0,0.0,95,0.00,,,0.00,Wunderground PWS Mod,2013-01-19 04:39:00,
2013-01-18 20:49:00,29.7,28.2,30.28,NW,313,0.0,0.0,94,0.00,,,0.00,Wunderground PWS Mod,2013-01-19 04:49:00,
2013-01-18 21:00:00,29.5,28.0,30.28,NW,313,0.0,0.0,94,0.00,,,0.00,Wunderground PWS Mod,2013-01-19 05:00:00,
2013-01-18 21:10:00,29.5,28.0,30.28,NW,313,0.0,2.0,94,0.00,,,0.00,Wunderground PWS Mod,2013-01-19 05:10:00,
2013-01-18 21:20:00,29.4,27.9,30.29,NW,313,0.0,0.0,94,0.00,,,0.00,Wunderground PWS Mod,2013-01-19 05:20:00,
2013-01-18 21:30:00,29.3,27.8,30.29,NW,313,0.0,0.0,94,0.00,,,0.00,Wunderground PWS Mod,2013-01-19 05:30:00,
2013-01-18 21:40:00,29.4,28.1,30.29,NW,313,0.0,2.0,95,0.00,,,0.00,Wunderground PWS Mod,2013-01-19 05:40:00,
2013-01-18 21:50:00,29.4,28.1,30.29,NW,313,0.0,3.0,95,0.00,,,0.00,Wunderground PWS Mod,2013-01-19 05:50:00,
2013-01-18 22:00:00,29.5,28.2,30.29,NW,313,0.0,0.0,95,0.00,,,0.00,Wunderground PWS Mod,2013-01-19 06:00:00,
2013-01-18 22:10:00,29.7,28.4,30.29,NW,313,0.0,1.0,95,0.00,,,0.00,Wunderground PWS Mod,2013-01-19 06:10:00,
2013-01-18 22:20:00,29.8,28.5,30.29,NW,319,1.0,2.0,95,0.00,,,0.00,Wunderground PWS Mod,2013-01-19 06:20:00,
2013-01-18 22:30:00,29.8,28.5,30.29,NW,320,1.0,3.0,95,0.00,,,0.00,Wunderground PWS Mod,2013-01-19 06:30:00,
2013-01-18 22:40:00,29.7,28.4,30.29,NW,323,1.0,3.0,95,0.00,,,0.00,Wunderground PWS Mod,2013-01-19 06:40:00,
2013-01-18 22:50:00,29.7,28.4,30.29,NNW,335,1.0,2.0,95,0.00,,,0.00,Wunderground PWS Mod,2013-01-19 06:50:00,
2013-01-18 23:00:00,29.5,28.2,30.29,NW,315,0.0,2.0,95,0.00,,,0.00,Wunderground PWS Mod,2013-01-19 07:00:00,
2013-01-18 23:10:00,29.5,28.2,30.29,NW,315,0.0,0.0,95,0.00,,,0.00,Wunderground PWS Mod,2013-01-19 07:10:00,
2013-01-18 23:20:00,29.5,28.2,30.29,NW,315,0.0,1.0,95,0.00,,,0.00,Wunderground PWS Mod,2013-01-19 07:20:00,
2013-01-18 23:30:00,29.4,28.1,30.29,NW,315,0.0,1.0,95,0.00,,,0.00,Wunderground PWS Mod,2013-01-19 07:30:00,
2013-01-18 23:40:00,29.4,28.1,30.29,NW,315,0.0,1.0,95,0.00,,,0.00,Wunderground PWS Mod,2013-01-19 07:40:00,
2013-01-18 23:50:00,29.3,28.0,30.29,NW,321,0.0,2.0,95,0.00,,,0.00,Wunderground PWS Mod,2013-01-19 07:50:00,